createdAt,value
2023-04-17T00:01:19.510Z,8.8
2023-04-17T00:07:13.113Z,8.8
2023-04-17T00:13:19.746Z,8.7
2023-04-17T00:19:11.919Z,8.7
2023-04-17T00:24:47.491Z,8.7
2023-04-17T00:30:09.113Z,8.6
2023-04-17T00:36:01.043Z,8.6
2023-04-17T00:41:52.192Z,8.5
2023-04-17T00:47:43.924Z,8.5
2023-04-17T00:53:35.722Z,8.4
2023-04-17T00:59:27.647Z,8.4
2023-04-17T01:05:22.633Z,8.4
2023-04-17T01:10:58.812Z,8.3
2023-04-17T01:16:34.233Z,8.2
2023-04-17T01:22:26.494Z,8.1
2023-04-17T01:28:17.532Z,8.1
2023-04-17T01:34:09.237Z,8
2023-04-17T01:39:45.760Z,7.9
2023-04-17T01:45:36.885Z,7.9
2023-04-17T01:51:13.425Z,7.9
2023-04-17T02:02:41.716Z,7.8
2023-04-17T02:08:18.955Z,7.8
2023-04-17T02:14:11.547Z,7.8
2023-04-17T02:19:47.762Z,7.8
2023-04-17T02:25:24.000Z,7.8
2023-04-17T02:31:16.045Z,7.7
2023-04-17T02:37:07.463Z,7.7
2023-04-17T02:42:58.540Z,7.7
2023-04-17T02:48:35.836Z,7.7
2023-04-17T02:54:27.282Z,7.7
2023-04-17T03:00:18.573Z,7.7
2023-04-17T03:06:12.512Z,7.7
2023-04-17T03:12:03.962Z,7.7
2023-04-17T03:17:58.073Z,7.8
2023-04-17T03:23:50.338Z,7.8
2023-04-17T03:29:26.012Z,7.8
2023-04-17T03:35:04.603Z,7.8
2023-04-17T03:40:57.519Z,7.8
2023-04-17T03:46:33.627Z,7.8
2023-04-17T03:52:09.647Z,7.8
2023-04-17T03:58:01.661Z,7.8
2023-04-17T04:03:38.535Z,7.9
2023-04-17T04:09:30.180Z,7.9
2023-04-17T04:15:07.178Z,7.9
2023-04-17T04:20:43.134Z,8
2023-04-17T04:26:35.703Z,8.1
2023-04-17T04:32:13.760Z,8.1
2023-04-17T04:43:13.741Z,8.3
2023-04-17T04:48:35.383Z,8.4
2023-04-17T04:53:55.516Z,8.6
2023-04-17T04:59:30.612Z,8.9
2023-04-17T05:05:10.571Z,9.6
2023-04-17T05:10:46.838Z,10
2023-04-17T05:16:39.661Z,10.4
2023-04-17T05:22:32.411Z,10.8
2023-04-17T05:28:07.941Z,11.4
2023-04-17T05:33:44.192Z,11.9
2023-04-17T05:39:24.505Z,12.4
2023-04-17T05:44:59.779Z,12.9
2023-04-17T05:50:35.974Z,13.4
2023-04-17T05:56:13.052Z,13.8
2023-04-17T06:02:03.606Z,14.1
2023-04-17T06:07:44.080Z,14.1
2023-04-17T06:13:23.011Z,14.3
2023-04-17T06:18:59.089Z,14.5
2023-04-17T06:24:36.428Z,14.8
2023-04-17T06:30:12.614Z,15.6
2023-04-17T06:35:57.536Z,16.5
2023-04-17T06:41:33.258Z,16.9
2023-04-17T06:46:55.102Z,17.3
2023-04-17T06:52:31.011Z,17.6
2023-04-17T06:58:06.230Z,18.1
2023-04-17T07:03:47.824Z,18.8
2023-04-17T07:09:08.780Z,19.6
2023-04-17T07:14:29.493Z,20.6
2023-04-17T07:20:07.799Z,23.3
2023-04-17T07:25:44.244Z,28.4
2023-04-17T07:31:20.603Z,31.6
2023-04-17T07:36:58.199Z,30.8
2023-04-17T07:42:37.284Z,29.9
2023-04-17T07:48:01.425Z,29.2
2023-04-17T07:53:41.150Z,28.6
2023-04-17T07:59:20.128Z,28.1
2023-04-17T08:04:43.363Z,28.3
2023-04-17T08:10:23.131Z,32.2
2023-04-17T08:15:54.601Z,31.7
2023-04-17T08:21:31.306Z,31.8
2023-04-17T08:27:11.446Z,32.2
2023-04-17T08:33:05.842Z,32.4
2023-04-17T08:38:59.532Z,32.6
2023-04-17T08:44:53.179Z,32.6
2023-04-17T08:50:45.774Z,32.3
2023-04-17T08:56:21.467Z,32.1
2023-04-17T09:01:43.489Z,32.4
2023-04-17T09:07:22.698Z,32.8
2023-04-17T09:13:13.920Z,33.1
2023-04-17T09:18:36.513Z,33
2023-04-17T09:24:13.327Z,33.3
2023-04-17T09:29:34.297Z,33.5
2023-04-17T09:34:55.762Z,33.7
2023-04-17T09:40:50.444Z,33.8
2023-04-17T09:46:41.957Z,33.4
2023-04-17T09:52:35.355Z,32.8
2023-04-17T09:58:12.530Z,32.1
2023-04-17T10:04:05.922Z,31.8
2023-04-17T10:09:58.413Z,31.8
2023-04-17T10:15:50.462Z,31.9
2023-04-17T10:21:44.571Z,32.3
2023-04-17T10:27:37.502Z,32.7
2023-04-17T10:33:32.464Z,33.3
2023-04-17T10:39:10.262Z,34.1
2023-04-17T10:45:03.414Z,34.4
2023-04-17T10:50:57.056Z,34.6
2023-04-17T10:56:48.904Z,34.9
2023-04-17T11:02:45.851Z,35.8
2023-04-17T11:08:23.508Z,35.6
2023-04-17T11:14:16.938Z,35.6
2023-04-17T11:19:54.518Z,35.4
2023-04-17T11:25:31.307Z,35.9
2023-04-17T11:30:52.100Z,37.1
2023-04-17T11:36:29.622Z,36.7
2023-04-17T11:42:06.614Z,35.4
2023-04-17T11:47:43.533Z,35.2
2023-04-17T11:53:35.493Z,35.3
2023-04-17T11:59:27.493Z,35.8
2023-04-17T12:05:06.808Z,35.3
2023-04-17T12:10:59.624Z,35.8
2023-04-17T12:16:51.416Z,36.3
2023-04-17T12:22:27.642Z,37.3
2023-04-17T12:33:41.182Z,38.6
2023-04-17T12:39:32.355Z,38.8
2023-04-17T12:45:23.166Z,38.9
2023-04-17T12:51:16.478Z,38.6
2023-04-17T12:57:07.760Z,38.5
2023-04-17T13:03:01.011Z,38.5
2023-04-17T13:08:38.109Z,38.7
2023-04-17T13:14:14.095Z,38.6
2023-04-17T13:20:08.093Z,38.6
2023-04-17T13:25:59.399Z,38.4
2023-04-17T13:31:53.285Z,38.3
2023-04-17T13:37:48.250Z,36.8
2023-04-17T13:43:25.111Z,35.9
2023-04-17T13:49:18.906Z,35.9
2023-04-17T13:55:12.188Z,35.9
2023-04-17T14:00:47.845Z,36.1
2023-04-17T14:06:28.877Z,35.9
2023-04-17T14:12:24.119Z,35.8
2023-04-17T14:18:15.537Z,35.6
2023-04-17T14:23:43.873Z,35.5
2023-04-17T14:29:20.814Z,35.4
2023-04-17T14:34:56.991Z,35.2
2023-04-17T14:40:53.679Z,35.1
2023-04-17T14:46:47.479Z,34.9
2023-04-17T14:52:50.244Z,34.8
2023-04-17T14:58:40.839Z,34.5
2023-04-17T15:04:35.017Z,34.2
2023-04-17T15:10:12.809Z,33.9
2023-04-17T15:16:02.514Z,33.6
2023-04-17T15:21:55.226Z,33.4
2023-04-17T15:27:46.446Z,33.1
2023-04-17T15:33:37.565Z,32.8
2023-04-17T15:39:29.620Z,32.4
2023-04-17T15:45:22.602Z,32.2
2023-04-17T15:51:40.270Z,31.8
2023-04-17T15:57:33.229Z,31.5
2023-04-17T16:03:25.388Z,31.2
2023-04-17T16:09:02.361Z,30.9
2023-04-17T16:14:54.250Z,30.6
2023-04-17T16:20:46.051Z,30.3
2023-04-17T16:26:37.360Z,29.9
2023-04-17T16:32:14.878Z,29.6
2023-04-17T16:37:55.693Z,29.3
2023-04-17T16:43:33.168Z,28.9
2023-04-17T16:50:04.413Z,28.5
2023-04-17T16:55:57.188Z,27.5
2023-04-17T17:01:48.193Z,26.2
2023-04-17T17:07:41.707Z,25
2023-04-17T17:12:31.287Z,24.1
2023-04-17T17:18:22.946Z,23
2023-04-17T17:23:59.263Z,22.1
2023-04-17T17:29:49.822Z,21.2
2023-04-17T17:35:38.020Z,20.4
2023-04-17T17:41:14.954Z,19.7
2023-04-17T17:47:07.990Z,19
2023-04-17T17:53:00.217Z,18.4
2023-04-17T17:58:52.244Z,17.8
2023-04-17T18:04:31.036Z,17.3
2023-04-17T18:15:28.633Z,16.3
2023-04-17T18:21:04.998Z,15.8
2023-04-17T18:26:40.880Z,15.3
2023-04-17T18:32:17.029Z,14.8
2023-04-17T18:38:11.944Z,14.4
2023-04-17T18:43:47.556Z,14
2023-04-17T18:49:24.573Z,13.6
2023-04-17T18:55:06.593Z,13.3
2023-04-17T19:05:51.055Z,12.7
2023-04-17T19:11:43.742Z,12.4
2023-04-17T19:17:36.486Z,12.1
2023-04-17T19:23:29.576Z,11.9
2023-04-17T19:35:00.069Z,11.5
2023-04-17T19:40:34.202Z,11.3
2023-04-17T19:46:29.285Z,11.2
2023-04-17T19:57:30.296Z,10.9
2023-04-17T20:08:48.172Z,10.6
2023-04-17T20:14:40.283Z,10.4
2023-04-17T20:20:16.705Z,10.3
2023-04-17T20:26:10.777Z,10.2
2023-04-17T20:32:04.115Z,10.1
2023-04-17T20:37:39.704Z,10
2023-04-17T20:43:16.255Z,9.9
2023-04-17T20:49:22.326Z,9.8
2023-04-17T20:55:13.224Z,9.7
2023-04-17T21:01:17.810Z,9.6
2023-04-17T21:06:55.612Z,9.6
2023-04-17T21:12:16.520Z,9.5
2023-04-17T21:23:29.369Z,9.4
2023-04-17T21:29:04.313Z,9.3
2023-04-17T21:34:41.086Z,9.3
2023-04-17T21:40:17.347Z,9.3
2023-04-17T21:46:11.046Z,9.2
2023-04-17T21:52:02.182Z,9.1
2023-04-17T21:57:54.260Z,9.1
2023-04-17T22:03:45.644Z,9.1
2023-04-17T22:14:54.197Z,9
2023-04-17T22:20:45.793Z,9
2023-04-17T22:26:37.202Z,9
2023-04-17T22:32:14.041Z,8.9
2023-04-17T22:37:48.957Z,8.9
2023-04-17T22:43:40.327Z,8.9
2023-04-17T22:49:02.483Z,8.9
2023-04-17T22:54:49.567Z,8.9
2023-04-17T23:00:25.023Z,8.9
2023-04-17T23:06:18.505Z,8.9
2023-04-17T23:11:54.336Z,8.9
2023-04-17T23:17:15.016Z,8.9
2023-04-17T23:28:17.801Z,8.8
2023-04-17T23:33:54.098Z,8.8
2023-04-17T23:39:30.841Z,8.8
2023-04-17T23:45:07.349Z,8.8
2023-04-17T23:50:59.266Z,8.8
2023-04-17T23:56:51.668Z,8.8
